createdAt,value
2023-01-02T00:00:59.495Z,61.26
2023-01-02T00:03:26.507Z,61.14
2023-01-02T00:05:54.541Z,60.84
2023-01-02T00:08:21.188Z,60.71
2023-01-02T00:10:47.891Z,61.12
2023-01-02T00:13:14.894Z,61.40
2023-01-02T00:15:41.533Z,61.33
2023-01-02T00:18:08.284Z,61.53
2023-01-02T00:20:34.967Z,60.67
2023-01-02T00:23:01.614Z,60.14
2023-01-02T00:25:28.367Z,60.23
2023-01-02T00:27:56.185Z,60.26
2023-01-02T00:30:23.005Z,60.74
2023-01-02T00:32:49.637Z,60.77
2023-01-02T00:35:16.388Z,61.01
2023-01-02T00:37:42.996Z,59.85
2023-01-02T00:40:13.945Z,60.01
2023-01-02T00:42:41.464Z,59.39
2023-01-02T00:45:09.910Z,59.06
2023-01-02T00:47:37.147Z,59.11
2023-01-02T00:50:04.750Z,58.86
2023-01-02T00:52:31.578Z,59.98
2023-01-02T00:54:58.206Z,58.72
2023-01-02T00:57:24.872Z,58.73
2023-01-02T00:59:51.475Z,59.08
2023-01-02T01:02:18.232Z,58.12
2023-01-02T01:04:44.993Z,58.46
2023-01-02T01:07:11.608Z,57.75
2023-01-02T01:09:38.211Z,58.41
2023-01-02T01:12:05.356Z,58.39
2023-01-02T01:14:32.254Z,59.14
2023-01-02T01:16:59.856Z,59.29
2023-01-02T01:19:34.208Z,58.60
2023-01-02T01:22:00.867Z,58.90
2023-01-02T01:24:27.946Z,59.25
2023-01-02T01:26:54.619Z,59.04
2023-01-02T01:29:21.376Z,58.69
2023-01-02T01:31:48.049Z,58.61
2023-01-02T01:34:14.833Z,59.75
2023-01-02T01:36:41.568Z,59.80
2023-01-02T01:39:08.262Z,58.66
2023-01-02T01:41:34.986Z,59.42
2023-01-02T01:44:01.739Z,58.93
2023-01-02T01:46:46.454Z,58.08
2023-01-02T01:49:27.648Z,57.50
2023-01-02T01:52:03.636Z,58.91
2023-01-02T01:54:35.199Z,57.97
2023-01-02T01:57:12.347Z,57.70
2023-01-02T01:59:39.568Z,57.97
2023-01-02T02:02:06.952Z,58.72
2023-01-02T02:04:34.295Z,57.72
2023-01-02T02:07:01.812Z,58.04
2023-01-02T02:09:35.596Z,58.81
2023-01-02T02:12:04.465Z,57.25
2023-01-02T02:14:31.139Z,57.97
2023-01-02T02:17:36.417Z,57.76
2023-01-02T02:20:27.180Z,57.81
2023-01-02T02:23:18.975Z,58.12
2023-01-02T02:25:59.947Z,58.40
2023-01-02T02:29:04.528Z,57.95
2023-01-02T02:31:59.485Z,58.07
2023-01-02T02:34:40.213Z,58.35
2023-01-02T02:37:34.022Z,57.98
2023-01-02T02:40:10.050Z,58.03
2023-01-02T02:42:52.666Z,57.98
2023-01-02T02:45:38.281Z,58.86
2023-01-02T02:48:13.805Z,58.92
2023-01-02T02:51:00.925Z,58.16
2023-01-02T02:53:35.968Z,58.09
2023-01-02T02:56:07.944Z,58.21
2023-01-02T02:58:36.278Z,58.31
2023-01-02T03:01:06.002Z,58.79
2023-01-02T03:03:33.254Z,59.78
2023-01-02T03:06:18.149Z,59.32
2023-01-02T03:09:22.566Z,60.11
2023-01-02T03:12:10.363Z,59.49
2023-01-02T03:14:51.474Z,59.62
2023-01-02T03:17:22.998Z,60.03
2023-01-02T03:19:57.450Z,58.48
2023-01-02T03:22:31.592Z,59.23
2023-01-02T03:24:59.219Z,59.33
2023-01-02T03:27:30.104Z,58.96
2023-01-02T03:30:10.977Z,58.44
2023-01-02T03:32:43.673Z,58.29
2023-01-02T03:35:19.691Z,58.11
2023-01-02T03:37:51.414Z,58.64
2023-01-02T03:40:24.991Z,59.05
2023-01-02T03:43:21.450Z,58.16
2023-01-02T03:46:01.663Z,58.38
2023-01-02T03:48:34.888Z,58.17
2023-01-02T03:51:03.745Z,58.36
2023-01-02T03:53:33.760Z,58.33
2023-01-02T03:56:11.202Z,58.37
2023-01-02T03:58:43.783Z,58.71
2023-01-02T04:01:20.677Z,58.95
2023-01-02T04:03:52.872Z,58.43
2023-01-02T04:06:24.949Z,58.08
2023-01-02T04:09:00.394Z,58.52
2023-01-02T04:11:30.459Z,58.01
2023-01-02T04:14:03.254Z,58.26
2023-01-02T04:16:34.546Z,57.95
2023-01-02T04:19:21.473Z,57.89
2023-01-02T04:21:50.002Z,59.06
2023-01-02T04:24:27.099Z,59.69
2023-01-02T04:27:09.772Z,57.61
2023-01-02T04:29:36.467Z,57.58
2023-01-02T04:32:30.923Z,58.21
2023-01-02T04:34:59.224Z,57.59
2023-01-02T04:37:31.683Z,58.42
2023-01-02T04:40:04.077Z,58.28
2023-01-02T04:42:35.651Z,57.70
2023-01-02T04:45:03.260Z,58.57
2023-01-02T04:47:30.151Z,59.33
2023-01-02T04:49:56.798Z,60.02
2023-01-02T04:52:23.462Z,58.92
2023-01-02T04:54:50.140Z,59.78
2023-01-02T04:57:16.839Z,59.00
2023-01-02T04:59:43.470Z,59.89
2023-01-02T05:02:10.247Z,59.82
2023-01-02T05:04:37.095Z,59.99
2023-01-02T05:07:04.506Z,59.30
2023-01-02T05:09:31.134Z,58.84
2023-01-02T05:11:57.864Z,59.70
2023-01-02T05:14:24.562Z,60.25
2023-01-02T05:16:51.241Z,59.60
2023-01-02T05:19:17.919Z,59.25
2023-01-02T05:22:03.406Z,58.96
2023-01-02T05:24:30.073Z,59.26
2023-01-02T05:26:56.697Z,59.88
2023-01-02T05:29:23.537Z,58.60
2023-01-02T05:31:50.686Z,58.73
2023-01-02T05:34:17.541Z,58.80
2023-01-02T05:36:44.383Z,58.96
2023-01-02T05:39:12.510Z,59.46
2023-01-02T05:41:40.069Z,58.70
2023-01-02T05:44:08.674Z,58.24
2023-01-02T05:46:36.495Z,58.32
2023-01-02T05:49:10.666Z,58.97
2023-01-02T05:51:37.560Z,58.32
2023-01-02T05:54:05.059Z,57.77
2023-01-02T05:56:32.089Z,59.10
2023-01-02T05:58:58.705Z,58.51
2023-01-02T06:01:28.006Z,59.31
2023-01-02T06:03:57.960Z,58.70
2023-01-02T06:06:29.521Z,59.01
2023-01-02T06:08:56.326Z,59.32
2023-01-02T06:11:22.953Z,58.98
2023-01-02T06:13:49.548Z,59.21
2023-01-02T06:16:16.320Z,59.08
2023-01-02T06:18:43.038Z,58.84
2023-01-02T06:21:15.398Z,59.30
2023-01-02T06:23:42.868Z,59.10
2023-01-02T06:26:13.800Z,58.31
2023-01-02T06:28:40.846Z,59.05
2023-01-02T06:31:18.863Z,58.74
2023-01-02T06:33:46.019Z,58.24
2023-01-02T06:36:18.315Z,58.70
2023-01-02T06:38:45.800Z,58.34
2023-01-02T06:41:12.903Z,57.98
2023-01-02T06:43:45.824Z,57.80
2023-01-02T06:46:19.522Z,57.46
2023-01-02T06:48:46.981Z,57.55
2023-01-02T06:51:16.524Z,58.03
2023-01-02T06:53:44.467Z,57.79
2023-01-02T06:56:12.540Z,57.94
2023-01-02T06:58:39.720Z,57.71
2023-01-02T07:01:09.139Z,57.44
2023-01-02T07:03:36.556Z,57.05
2023-01-02T07:06:10.552Z,57.12
2023-01-02T07:08:37.565Z,57.08
2023-01-02T07:11:19.207Z,56.07
2023-01-02T07:13:47.843Z,55.84
2023-01-02T07:16:16.260Z,56.19
2023-01-02T07:18:43.516Z,55.19
2023-01-02T07:21:12.049Z,55.09
2023-01-02T07:23:38.824Z,54.54
2023-01-02T07:26:06.955Z,54.63
2023-01-02T07:28:34.868Z,53.53
2023-01-02T07:31:05.554Z,54.66
2023-01-02T07:33:33.268Z,54.45
2023-01-02T07:36:04.993Z,55.01
2023-01-02T07:38:31.825Z,54.33
2023-01-02T07:40:58.607Z,54.88
2023-01-02T07:43:25.689Z,54.60
2023-01-02T07:45:52.428Z,53.52
2023-01-02T07:48:19.195Z,53.91
2023-01-02T07:50:46.415Z,52.53
2023-01-02T07:53:13.131Z,50.36
2023-01-02T07:55:39.919Z,49.87
2023-01-02T07:58:07.173Z,49.73
2023-01-02T08:00:33.803Z,50.88
2023-01-02T08:03:00.987Z,50.50
2023-01-02T08:05:27.843Z,51.36
2023-01-02T08:07:54.484Z,51.56
2023-01-02T08:10:21.169Z,51.13
2023-01-02T08:12:47.812Z,51.90
2023-01-02T08:15:14.568Z,51.27
2023-01-02T08:17:41.549Z,51.50
2023-01-02T08:20:09.364Z,51.90
2023-01-02T08:22:36.242Z,51.09
2023-01-02T08:25:03.856Z,51.71
2023-01-02T08:27:30.704Z,51.57
2023-01-02T08:29:57.385Z,53.41
2023-01-02T08:32:24.126Z,50.65
2023-01-02T08:34:50.820Z,51.69
2023-01-02T08:37:17.667Z,50.42
2023-01-02T08:39:44.309Z,50.25
2023-01-02T08:42:11.175Z,49.42
2023-01-02T08:44:38.241Z,49.38
2023-01-02T08:47:05.685Z,49.19
2023-01-02T08:49:32.474Z,49.10
2023-01-02T08:51:59.219Z,49.38
2023-01-02T08:54:26.261Z,49.35
2023-01-02T08:56:53.160Z,50.51
2023-01-02T08:59:20.039Z,50.71
2023-01-02T09:01:46.887Z,51.67
2023-01-02T09:04:13.930Z,52.41
2023-01-02T09:06:42.011Z,51.75
2023-01-02T09:09:12.557Z,50.91
2023-01-02T09:11:44.788Z,51.38
2023-01-02T09:14:11.506Z,50.88
2023-01-02T09:16:38.190Z,50.71
2023-01-02T09:19:05.090Z,50.83
2023-01-02T09:21:32.084Z,51.04
2023-01-02T09:23:59.377Z,50.76
2023-01-02T09:26:26.459Z,51.17
2023-01-02T09:28:53.589Z,50.35
2023-01-02T09:31:20.723Z,50.54
2023-01-02T09:33:48.188Z,49.80
2023-01-02T09:36:24.582Z,49.76
2023-01-02T09:38:53.218Z,49.67
2023-01-02T09:41:25.269Z,49.49
2023-01-02T09:44:33.438Z,49.53
2023-01-02T09:47:11.064Z,49.82
2023-01-02T09:49:45.484Z,50.73
2023-01-02T09:52:18.567Z,49.85
2023-01-02T09:54:45.210Z,49.73
2023-01-02T09:57:32.231Z,49.86
2023-01-02T10:00:04.823Z,51.13
2023-01-02T10:02:45.198Z,49.30
2023-01-02T10:05:38.413Z,49.16
2023-01-02T10:08:31.422Z,48.75
2023-01-02T10:11:09.799Z,48.60
2023-01-02T10:16:49.741Z,48.04
2023-01-02T10:19:40.803Z,47.53
2023-01-02T10:22:12.718Z,47.82
2023-01-02T10:24:45.859Z,47.62
2023-01-02T10:27:18.399Z,47.86
2023-01-02T10:30:02.973Z,47.92
2023-01-02T10:32:32.771Z,48.02
2023-01-02T10:35:14.706Z,47.74
2023-01-02T10:37:41.396Z,47.81
2023-01-02T10:40:08.566Z,47.72
2023-01-02T10:42:35.199Z,47.71
2023-01-02T10:45:02.833Z,48.42
2023-01-02T10:47:37.647Z,48.16
2023-01-02T10:50:14.992Z,48.32
2023-01-02T10:52:52.971Z,49.14
2023-01-02T10:55:36.887Z,49.53
2023-01-02T10:58:06.238Z,49.55
2023-01-02T11:00:35.556Z,50.61
2023-01-02T11:03:23.698Z,50.92
2023-01-02T11:05:53.553Z,51.05
2023-01-02T11:08:34.192Z,51.86
2023-01-02T11:11:03.463Z,53.58
2023-01-02T11:13:48.959Z,54.85
2023-01-02T11:16:21.339Z,55.92
2023-01-02T11:18:56.545Z,55.94
2023-01-02T11:21:29.953Z,55.46
2023-01-02T11:24:05.558Z,55.36
2023-01-02T11:26:34.355Z,55.83
2023-01-02T11:29:09.280Z,56.14
2023-01-02T11:31:43.365Z,55.22
2023-01-02T11:34:19.340Z,55.57
2023-01-02T11:37:00.288Z,56.26
2023-01-02T11:39:26.908Z,55.30
2023-01-02T11:42:27.302Z,55.70
2023-01-02T11:45:06.271Z,55.62
2023-01-02T11:47:38.055Z,56.02
2023-01-02T11:50:05.225Z,55.93
2023-01-02T11:53:00.022Z,55.93
2023-01-02T11:55:35.692Z,55.46
2023-01-02T11:58:37.553Z,55.55
2023-01-02T12:01:17.282Z,55.46
2023-01-02T12:03:44.390Z,55.88
2023-01-02T12:06:23.902Z,56.20
2023-01-02T12:08:56.693Z,56.75
2023-01-02T12:11:45.180Z,56.55
2023-01-02T12:14:18.324Z,57.14
2023-01-02T12:17:14.507Z,58.00
2023-01-02T12:19:49.536Z,58.70
2023-01-02T12:22:25.015Z,59.54
2023-01-02T12:25:08.384Z,59.68
2023-01-02T12:27:58.407Z,60.81
2023-01-02T12:30:25.304Z,61.57
2023-01-02T12:33:17.651Z,62.38
2023-01-02T12:36:05.583Z,62.91
2023-01-02T12:39:37.176Z,63.84
2023-01-02T12:42:16.056Z,64.32
2023-01-02T12:44:55.076Z,65.21
2023-01-02T12:47:48.884Z,65.28
2023-01-02T12:50:27.071Z,65.26
2023-01-02T12:53:13.767Z,65.11
2023-01-02T12:55:49.439Z,65.56
2023-01-02T12:58:48.356Z,65.85
2023-01-02T13:01:53.611Z,65.97
2023-01-02T13:04:23.622Z,66.07
2023-01-02T13:06:56.369Z,66.23
2023-01-02T13:09:37.793Z,66.29
2023-01-02T13:12:10.160Z,66.83
2023-01-02T13:14:49.060Z,67.01
2023-01-02T13:17:38.557Z,67.24
2023-01-02T13:20:12.833Z,67.05
2023-01-02T13:22:47.753Z,66.92
2023-01-02T13:25:20.362Z,66.93
2023-01-02T13:27:48.779Z,67.01
2023-01-02T13:30:33.477Z,67.67
2023-01-02T13:33:02.687Z,67.79
2023-01-02T13:35:35.097Z,67.72
2023-01-02T13:38:05.922Z,67.81
2023-01-02T13:40:33.693Z,67.86
2023-01-02T13:43:08.295Z,68.11
2023-01-02T13:45:55.152Z,67.91
2023-01-02T13:48:46.090Z,68.71
2023-01-02T13:51:16.606Z,69.26
2023-01-02T13:53:46.209Z,68.99
2023-01-02T13:56:21.832Z,68.86
2023-01-02T13:58:57.602Z,69.17
2023-01-02T14:01:24.620Z,69.15
2023-01-02T14:04:09.643Z,69.54
2023-01-02T14:06:48.581Z,69.67
2023-01-02T14:09:23.647Z,69.84
2023-01-02T14:11:57.039Z,69.82
2023-01-02T14:14:37.082Z,69.37
2023-01-02T14:17:22.409Z,69.60
2023-01-02T14:20:15.370Z,69.29
2023-01-02T14:22:47.980Z,68.63
2023-01-02T14:25:15.945Z,68.80
2023-01-02T14:27:59.339Z,68.31
2023-01-02T14:30:41.041Z,68.17
2023-01-02T14:33:10.128Z,67.81
2023-01-02T14:35:48.970Z,67.71
2023-01-02T14:38:22.725Z,67.58
2023-01-02T14:40:50.301Z,67.42
2023-01-02T14:43:30.692Z,67.66
2023-01-02T14:46:18.882Z,67.82
2023-01-02T14:49:24.803Z,68.20
2023-01-02T14:52:02.384Z,67.87
2023-01-02T14:54:47.959Z,68.21
2023-01-02T14:57:34.697Z,68.03
2023-01-02T15:00:11.729Z,68.31
2023-01-02T15:02:47.601Z,68.09
2023-01-02T15:05:26.564Z,68.02
2023-01-02T15:07:58.870Z,68.15
2023-01-02T15:10:26.339Z,67.93
2023-01-02T15:13:07.053Z,67.87
2023-01-02T15:15:42.738Z,67.85
2023-01-02T15:18:20.473Z,67.88
2023-01-02T15:20:53.112Z,68.01
2023-01-02T15:23:27.272Z,68.00
2023-01-02T15:26:33.218Z,68.23
2023-01-02T15:28:41.727Z,67.99
2023-01-02T15:31:14.266Z,68.05
2023-01-02T15:33:41.550Z,68.25
2023-01-02T15:36:13.439Z,68.11
2023-01-02T15:38:41.056Z,68.34
2023-01-02T15:41:15.482Z,68.80
2023-01-02T15:44:00.830Z,69.18
2023-01-02T15:46:28.108Z,69.14
2023-01-02T15:48:55.485Z,69.43
2023-01-02T15:51:40.404Z,69.58
2023-01-02T15:54:15.561Z,69.69
2023-01-02T15:56:42.800Z,70.01
2023-01-02T15:59:30.484Z,70.23
2023-01-02T16:01:57.312Z,73.13
2023-01-02T16:04:33.134Z,74.97
2023-01-02T16:07:20.925Z,75.71
2023-01-02T16:09:54.261Z,75.82
2023-01-02T16:12:22.829Z,75.03
2023-01-02T16:14:55.470Z,74.33
2023-01-02T16:17:36.763Z,71.80
2023-01-02T16:20:17.847Z,72.17
2023-01-02T16:22:53.230Z,71.12
2023-01-02T16:25:24.098Z,71.18
2023-01-02T16:28:35.128Z,71.95
2023-01-02T16:31:14.291Z,72.21
2023-01-02T16:33:42.180Z,72.25
2023-01-02T16:36:29.626Z,71.47
2023-01-02T16:38:59.467Z,71.77
2023-01-02T16:41:38.092Z,72.48
2023-01-02T16:44:12.857Z,72.75
2023-01-02T16:46:44.210Z,73.26
2023-01-02T16:49:16.542Z,73.54
2023-01-02T16:51:45.196Z,73.17
2023-01-02T16:54:13.550Z,73.04
2023-01-02T16:56:40.451Z,73.05
2023-01-02T16:59:07.519Z,72.84
2023-01-02T17:01:34.404Z,73.69
2023-01-02T17:04:01.299Z,74.22
2023-01-02T17:06:28.043Z,74.54
2023-01-02T17:08:54.840Z,74.79
2023-01-02T17:11:24.532Z,74.57
2023-01-02T17:13:52.154Z,74.86
2023-01-02T17:16:19.991Z,75.28
2023-01-02T17:18:46.863Z,74.84
2023-01-02T17:21:13.596Z,74.41
2023-01-02T17:23:40.283Z,74.23
2023-01-02T17:26:06.932Z,74.59
2023-01-02T17:28:33.647Z,74.88
2023-01-02T17:31:00.471Z,74.34
2023-01-02T17:33:27.286Z,73.76
2023-01-02T17:35:53.889Z,74.03
2023-01-02T17:38:20.581Z,74.14
2023-01-02T17:40:47.574Z,74.03
2023-01-02T17:43:14.410Z,73.43
2023-01-02T17:45:42.778Z,73.22
2023-01-02T17:48:12.664Z,72.96
2023-01-02T17:50:40.933Z,72.81
2023-01-02T17:53:08.541Z,72.96
2023-01-02T17:55:35.529Z,73.55
2023-01-02T17:58:03.557Z,72.89
2023-01-02T18:00:30.300Z,72.33
2023-01-02T18:02:57.025Z,72.30
2023-01-02T18:05:24.378Z,72.45
2023-01-02T18:07:51.073Z,71.34
2023-01-02T18:10:20.546Z,72.11
2023-01-02T18:12:49.296Z,71.88
2023-01-02T18:15:18.108Z,72.22
2023-01-02T18:17:45.016Z,71.83
2023-01-02T18:20:17.366Z,71.95
2023-01-02T18:22:49.620Z,71.85
2023-01-02T18:25:24.514Z,72.49
2023-01-02T18:28:00.182Z,72.45
2023-01-02T18:30:27.723Z,72.99
2023-01-02T18:33:11.028Z,72.27
2023-01-02T18:38:32.563Z,72.84
2023-01-02T18:40:59.431Z,72.82
2023-01-02T18:43:35.498Z,72.69
2023-01-02T18:46:13.720Z,72.38
2023-01-02T18:48:41.006Z,72.29
2023-01-02T18:51:21.183Z,72.15
2023-01-02T18:53:56.922Z,72.49
2023-01-02T18:56:27.292Z,72.23
2023-01-02T18:59:18.926Z,72.26
2023-01-02T19:01:50.946Z,71.97
2023-01-02T19:04:28.183Z,72.52
2023-01-02T19:07:00.102Z,72.13
2023-01-02T19:09:35.454Z,71.84
2023-01-02T19:12:41.816Z,71.96
2023-01-02T19:15:39.850Z,72.03
2023-01-02T19:18:19.711Z,72.26
2023-01-02T19:21:02.215Z,71.98
2023-01-02T19:23:32.459Z,72.28
2023-01-02T19:26:21.301Z,71.76
2023-01-02T19:28:54.065Z,72.05
2023-01-02T19:31:21.760Z,71.64
2023-01-02T19:33:52.791Z,70.93
2023-01-02T19:36:24.966Z,71.21
2023-01-02T19:38:52.196Z,71.08
2023-01-02T19:41:39.088Z,71.11
2023-01-02T19:44:05.883Z,70.65
2023-01-02T19:46:32.605Z,70.79
2023-01-02T19:48:59.395Z,69.37
2023-01-02T19:51:32.209Z,70.37
2023-01-02T19:54:03.968Z,70.11
2023-01-02T19:56:31.861Z,70.36
2023-01-02T19:58:58.475Z,71.20
2023-01-02T20:01:25.303Z,70.37
2023-01-02T20:03:52.104Z,70.54
2023-01-02T20:06:18.905Z,69.79
2023-01-02T20:08:47.212Z,69.85
2023-01-02T20:11:33.912Z,69.54
2023-01-02T20:14:00.527Z,69.83
2023-01-02T20:16:27.263Z,70.01
2023-01-02T20:18:54.044Z,70.46
2023-01-02T20:21:22.033Z,69.88
2023-01-02T20:23:56.020Z,69.72
2023-01-02T20:26:23.249Z,70.23
2023-01-02T20:28:49.909Z,70.23
2023-01-02T20:31:17.310Z,70.07
2023-01-02T20:33:43.955Z,70.58
2023-01-02T20:36:13.981Z,70.68
2023-01-02T20:38:40.784Z,70.61
2023-01-02T20:41:07.542Z,70.92
2023-01-02T20:43:34.254Z,70.81
2023-01-02T20:46:01.079Z,71.21
2023-01-02T20:48:27.940Z,71.09
2023-01-02T20:50:55.189Z,70.62
2023-01-02T20:53:21.981Z,70.75
2023-01-02T20:55:50.845Z,70.08
2023-01-02T20:58:17.569Z,70.99
2023-01-02T21:00:44.989Z,70.76
2023-01-02T21:03:11.928Z,70.63
2023-01-02T21:05:42.083Z,70.09
2023-01-02T21:08:10.697Z,71.03
2023-01-02T21:10:37.508Z,72.00
2023-01-02T21:13:07.501Z,72.96
2023-01-02T21:15:53.581Z,72.41
2023-01-02T21:18:40.000Z,72.52
2023-01-02T21:21:15.334Z,72.96
2023-01-02T21:23:42.119Z,73.46
2023-01-02T21:26:14.330Z,73.85
2023-01-02T21:28:43.993Z,73.48
2023-01-02T21:31:11.786Z,73.01
2023-01-02T21:33:38.741Z,72.91
2023-01-02T21:36:08.612Z,73.40
2023-01-02T21:38:36.190Z,73.60
2023-01-02T21:41:21.297Z,73.41
2023-01-02T21:43:48.824Z,73.54
2023-01-02T21:46:16.311Z,73.21
2023-01-02T21:48:43.143Z,73.16
2023-01-02T21:51:09.893Z,72.93
2023-01-02T21:53:36.543Z,72.66
2023-01-02T21:56:03.541Z,72.77
2023-01-02T21:58:30.455Z,72.44
2023-01-02T22:00:57.288Z,72.63
2023-01-02T22:03:24.163Z,72.46
2023-01-02T22:05:50.934Z,72.49
2023-01-02T22:08:17.651Z,72.60
2023-01-02T22:10:44.231Z,72.84
2023-01-02T22:13:10.925Z,72.69
2023-01-02T22:15:37.572Z,72.66
2023-01-02T22:18:04.460Z,72.48
2023-01-02T22:20:32.296Z,72.70
2023-01-02T22:22:59.047Z,73.51
2023-01-02T22:25:25.785Z,73.05
2023-01-02T22:27:52.512Z,74.20
2023-01-02T22:30:24.353Z,74.01
2023-01-02T22:32:54.724Z,73.62
2023-01-02T22:35:21.670Z,73.78
2023-01-02T22:37:48.474Z,72.93
2023-01-02T22:40:15.224Z,72.59
2023-01-02T22:43:02.097Z,72.32
2023-01-02T22:45:35.463Z,72.40
2023-01-02T22:48:05.914Z,72.93
2023-01-02T22:50:41.530Z,72.58
2023-01-02T22:53:31.919Z,72.67
2023-01-02T22:56:00.649Z,72.83
2023-01-02T22:58:27.702Z,72.54
2023-01-02T23:01:10.222Z,72.99
2023-01-02T23:03:41.982Z,72.60
2023-01-02T23:06:08.916Z,72.96
2023-01-02T23:08:36.254Z,73.09
2023-01-02T23:11:04.093Z,72.50
2023-01-02T23:13:33.109Z,72.90
2023-01-02T23:16:18.550Z,72.58
2023-01-02T23:19:04.148Z,72.54
2023-01-02T23:21:32.735Z,73.83
2023-01-02T23:23:59.605Z,73.30
2023-01-02T23:26:34.544Z,73.86
2023-01-02T23:29:09.136Z,73.58
2023-01-02T23:31:39.034Z,73.60
2023-01-02T23:34:06.576Z,75.31
2023-01-02T23:36:34.100Z,75.34
2023-01-02T23:39:00.800Z,75.71
2023-01-02T23:41:27.605Z,73.99
2023-01-02T23:43:54.353Z,74.36
2023-01-02T23:46:21.038Z,75.78
2023-01-02T23:48:48.395Z,74.17
2023-01-02T23:51:15.254Z,74.91
2023-01-02T23:53:41.889Z,74.76
2023-01-02T23:56:23.003Z,75.18
2023-01-02T23:58:54.298Z,76.58
